createdAt,value
2023-01-12T00:02:10.533Z,1.40
2023-01-12T00:04:38.929Z,2.08
2023-01-12T00:07:12.696Z,2.05
2023-01-12T00:09:40.885Z,1.52
2023-01-12T00:12:10.665Z,1.77
2023-01-12T00:14:39.510Z,1.10
2023-01-12T00:17:07.625Z,1.33
2023-01-12T00:19:37.189Z,1.15
2023-01-12T00:22:14.845Z,1.17
2023-01-12T00:24:44.934Z,1.45
2023-01-12T00:27:16.138Z,1.20
2023-01-12T00:29:44.199Z,1.35
2023-01-12T00:32:17.375Z,1.10
2023-01-12T00:34:45.511Z,1.50
2023-01-12T00:37:13.968Z,1.50
2023-01-12T00:39:45.993Z,1.08
2023-01-12T00:42:42.919Z,1.40
2023-01-12T00:45:23.616Z,1.30
2023-01-12T00:47:52.222Z,1.52
2023-01-12T00:50:21.158Z,1.02
2023-01-12T00:52:49.179Z,1.35
2023-01-12T00:55:16.968Z,1.70
2023-01-12T00:57:45.016Z,2.08
2023-01-12T01:00:13.370Z,1.92
2023-01-12T01:02:41.158Z,2.22
2023-01-12T01:05:09.369Z,1.27
2023-01-12T01:07:37.354Z,1.20
2023-01-12T01:10:05.465Z,1.17
2023-01-12T01:12:34.091Z,1.35
2023-01-12T01:15:01.904Z,1.67
2023-01-12T01:17:30.057Z,1.10
2023-01-12T01:19:57.930Z,1.40
2023-01-12T01:22:25.762Z,1.13
2023-01-12T01:24:53.674Z,1.30
2023-01-12T01:27:21.496Z,1.50
2023-01-12T01:29:49.221Z,1.23
2023-01-12T01:32:17.060Z,1.00
2023-01-12T01:34:46.567Z,1.30
2023-01-12T01:37:14.415Z,1.20
2023-01-12T01:39:42.135Z,1.40
2023-01-12T01:42:28.283Z,1.17
2023-01-12T01:44:58.775Z,1.10
2023-01-12T01:47:31.185Z,1.10
2023-01-12T01:50:00.869Z,1.13
2023-01-12T01:52:35.994Z,1.25
2023-01-12T01:55:17.568Z,0.93
2023-01-12T01:57:56.549Z,1.10
2023-01-12T02:00:25.607Z,1.20
2023-01-12T02:02:54.459Z,1.45
2023-01-12T02:05:25.106Z,1.17
2023-01-12T02:07:53.759Z,1.10
2023-01-12T02:10:22.609Z,1.20
2023-01-12T02:13:10.017Z,1.20
2023-01-12T02:16:20.867Z,1.30
2023-01-12T02:19:16.901Z,1.00
2023-01-12T02:22:10.925Z,1.10
2023-01-12T02:24:52.686Z,1.50
2023-01-12T02:30:20.245Z,1.55
2023-01-12T02:33:16.403Z,1.10
2023-01-12T02:35:55.830Z,1.92
2023-01-12T02:38:36.551Z,1.17
2023-01-12T02:41:08.699Z,1.20
2023-01-12T02:43:38.257Z,1.00
2023-01-12T02:46:20.421Z,1.10
2023-01-12T02:48:58.148Z,0.90
2023-01-12T02:51:33.621Z,0.90
2023-01-12T02:54:13.379Z,1.10
2023-01-12T02:56:46.913Z,0.98
2023-01-12T02:59:39.100Z,1.35
2023-01-12T03:02:13.424Z,1.20
2023-01-12T03:04:41.579Z,1.83
2023-01-12T03:07:15.668Z,1.40
2023-01-12T03:09:49.051Z,1.00
2023-01-12T03:12:43.423Z,1.00
2023-01-12T03:15:13.908Z,0.93
2023-01-12T03:17:53.990Z,1.10
2023-01-12T03:20:32.403Z,0.95
2023-01-12T03:23:14.387Z,1.30
2023-01-12T03:25:44.801Z,0.82
2023-01-12T03:28:14.811Z,1.10
2023-01-12T03:30:46.771Z,0.88
2023-01-12T03:33:14.842Z,1.23
2023-01-12T03:36:00.698Z,0.93
2023-01-12T03:38:49.765Z,1.00
2023-01-12T03:41:33.641Z,0.80
2023-01-12T03:44:04.324Z,1.10
2023-01-12T03:46:38.730Z,1.30
2023-01-12T03:49:48.892Z,0.93
2023-01-12T03:52:18.256Z,0.80
2023-01-12T03:54:47.251Z,0.90
2023-01-12T03:57:15.577Z,0.80
2023-01-12T03:59:43.515Z,0.90
2023-01-12T04:02:11.392Z,0.77
2023-01-12T04:04:39.233Z,0.93
2023-01-12T04:07:07.361Z,0.90
2023-01-12T04:09:35.236Z,0.88
2023-01-12T04:12:12.007Z,1.20
2023-01-12T04:14:41.844Z,0.90
2023-01-12T04:17:12.014Z,0.90
2023-01-12T04:19:39.944Z,0.75
2023-01-12T04:22:27.172Z,0.73
2023-01-12T04:24:55.044Z,0.70
2023-01-12T04:27:23.177Z,2.05
2023-01-12T04:29:50.968Z,0.90
2023-01-12T04:32:18.607Z,0.98
2023-01-12T04:34:47.146Z,0.75
2023-01-12T04:37:15.437Z,0.90
2023-01-12T04:39:43.346Z,0.70
2023-01-12T04:42:31.142Z,0.75
2023-01-12T04:44:59.013Z,1.10
2023-01-12T04:47:27.025Z,0.70
2023-01-12T04:49:54.896Z,0.88
2023-01-12T04:52:22.813Z,1.17
2023-01-12T04:54:50.608Z,0.90
2023-01-12T04:57:18.422Z,0.93
2023-01-12T04:59:46.325Z,0.95
2023-01-12T05:02:14.124Z,0.90
2023-01-12T05:04:42.880Z,0.85
2023-01-12T05:07:10.837Z,1.02
2023-01-12T05:09:57.498Z,0.98
2023-01-12T05:12:25.502Z,0.60
2023-01-12T05:14:53.933Z,0.70
2023-01-12T05:17:21.876Z,0.98
2023-01-12T05:19:49.914Z,1.02
2023-01-12T05:22:17.683Z,0.70
2023-01-12T05:24:45.559Z,0.80
2023-01-12T05:27:13.604Z,0.80
2023-01-12T05:29:41.661Z,0.85
2023-01-12T05:32:09.532Z,1.05
2023-01-12T05:34:37.264Z,0.68
2023-01-12T05:37:05.133Z,1.20
2023-01-12T05:39:32.966Z,0.60
2023-01-12T05:42:19.009Z,0.82
2023-01-12T05:44:46.741Z,0.63
2023-01-12T05:47:14.718Z,0.90
2023-01-12T05:49:42.451Z,0.88
2023-01-12T05:52:10.191Z,0.90
2023-01-12T05:54:38.164Z,0.75
2023-01-12T05:57:05.984Z,0.93
2023-01-12T05:59:33.815Z,0.50
2023-01-12T06:02:01.411Z,0.68
2023-01-12T06:04:29.339Z,0.82
2023-01-12T06:06:57.273Z,0.47
2023-01-12T06:09:25.074Z,0.60
2023-01-12T06:12:11.689Z,0.60
2023-01-12T06:14:39.614Z,0.65
2023-01-12T06:17:07.481Z,0.60
2023-01-12T06:19:35.290Z,0.85
2023-01-12T06:22:03.179Z,0.50
2023-01-12T06:24:30.959Z,0.60
2023-01-12T06:26:58.954Z,0.52
2023-01-12T06:29:27.092Z,0.65
2023-01-12T06:31:55.008Z,0.68
2023-01-12T06:34:22.846Z,0.88
2023-01-12T06:36:50.745Z,0.50
2023-01-12T06:39:18.657Z,0.82
2023-01-12T06:42:04.965Z,0.73
2023-01-12T06:44:32.847Z,0.70
2023-01-12T06:47:03.652Z,0.50
2023-01-12T06:49:31.526Z,0.60
2023-01-12T06:51:59.422Z,0.57
2023-01-12T06:54:27.299Z,0.93
2023-01-12T06:56:55.934Z,0.57
2023-01-12T06:59:23.864Z,0.68
2023-01-12T07:01:51.940Z,2.00
2023-01-12T07:04:20.118Z,0.60
2023-01-12T07:06:48.478Z,0.82
2023-01-12T07:09:16.341Z,1.15
2023-01-12T07:11:47.165Z,0.90
2023-01-12T07:14:14.902Z,0.67
2023-01-12T07:16:42.628Z,1.00
2023-01-12T07:19:10.387Z,0.80
2023-01-12T07:21:38.227Z,0.82
2023-01-12T07:24:06.280Z,0.85
2023-01-12T07:26:34.518Z,0.68
2023-01-12T07:29:02.850Z,0.90
2023-01-12T07:31:46.253Z,1.33
2023-01-12T07:34:14.241Z,0.85
2023-01-12T07:36:42.812Z,1.00
2023-01-12T07:39:12.849Z,2.13
2023-01-12T07:41:59.391Z,0.63
2023-01-12T07:44:27.432Z,0.80
2023-01-12T07:46:57.965Z,0.90
2023-01-12T07:49:26.228Z,0.70
2023-01-12T07:51:57.085Z,0.60
2023-01-12T07:54:24.980Z,0.70
2023-01-12T07:56:52.766Z,0.65
2023-01-12T07:59:20.754Z,0.70
2023-01-12T08:01:48.889Z,0.70
2023-01-12T08:04:16.796Z,0.60
2023-01-12T08:06:44.635Z,1.65
2023-01-12T08:09:12.538Z,0.55
2023-01-12T08:11:40.502Z,0.60
2023-01-12T08:14:08.353Z,0.82
2023-01-12T08:16:41.764Z,0.63
2023-01-12T08:19:16.990Z,0.70
2023-01-12T08:21:50.840Z,0.70
2023-01-12T08:24:22.670Z,1.15
2023-01-12T08:26:52.406Z,0.50
2023-01-12T08:29:34.156Z,0.50
2023-01-12T08:34:34.318Z,0.43
2023-01-12T08:37:06.138Z,0.60
2023-01-12T08:39:35.562Z,0.30
2023-01-12T08:42:04.558Z,0.45
2023-01-12T08:44:36.168Z,0.57
2023-01-12T08:49:33.522Z,0.50
2023-01-12T08:52:01.486Z,0.60
2023-01-12T08:54:29.560Z,0.45
2023-01-12T08:56:57.358Z,0.20
2023-01-12T08:59:25.781Z,0.30
2023-01-12T09:01:53.714Z,0.52
2023-01-12T09:04:21.423Z,0.40
2023-01-12T09:06:49.288Z,0.52
2023-01-12T09:09:19.989Z,0.30
2023-01-12T09:11:49.204Z,0.80
2023-01-12T09:14:17.862Z,0.40
2023-01-12T09:16:46.069Z,0.50
2023-01-12T09:19:16.928Z,0.32
2023-01-12T09:21:45.706Z,0.20
2023-01-12T09:24:14.897Z,0.43
2023-01-12T09:26:47.182Z,0.45
2023-01-12T09:29:15.716Z,0.28
2023-01-12T09:31:44.766Z,0.30
2023-01-12T09:34:13.132Z,0.52
2023-01-12T09:36:41.874Z,0.30
2023-01-12T09:39:18.667Z,0.25
2023-01-12T09:42:33.366Z,0.20
2023-01-12T09:45:20.106Z,0.20
2023-01-12T09:48:10.535Z,0.50
2023-01-12T09:51:00.718Z,0.30
2023-01-12T09:53:34.656Z,0.30
2023-01-12T09:56:16.265Z,0.30
2023-01-12T09:58:59.074Z,0.20
2023-01-12T10:01:30.059Z,0.40
2023-01-12T10:03:59.588Z,0.30
2023-01-12T10:06:27.436Z,0.10
2023-01-12T10:09:03.972Z,0.22
2023-01-12T10:12:00.460Z,0.20
2023-01-12T10:14:34.653Z,0.40
2023-01-12T10:17:25.795Z,0.20
2023-01-12T10:20:28.678Z,0.20
2023-01-12T10:23:02.418Z,0.50
2023-01-12T10:25:38.100Z,0.20
2023-01-12T10:28:16.297Z,0.28
2023-01-12T10:30:44.843Z,0.20
2023-01-12T10:33:21.783Z,0.20
2023-01-12T10:36:00.077Z,0.30
2023-01-12T10:38:34.992Z,0.20
2023-01-12T10:41:10.611Z,0.20
2023-01-12T10:43:40.261Z,0.25
2023-01-12T10:46:14.245Z,0.25
2023-01-12T10:48:45.177Z,0.17
2023-01-12T10:51:26.462Z,0.20
2023-01-12T10:54:10.567Z,0.22
2023-01-12T10:57:05.526Z,0.20
2023-01-12T10:59:49.308Z,0.10
2023-01-12T11:02:17.862Z,0.20
2023-01-12T11:04:45.752Z,0.15
2023-01-12T11:07:30.734Z,0.30
2023-01-12T11:10:20.765Z,0.20
2023-01-12T11:12:59.168Z,0.28
2023-01-12T11:15:28.747Z,0.38
2023-01-12T11:18:19.055Z,0.25
2023-01-12T11:20:57.708Z,0.28
2023-01-12T11:23:55.432Z,0.20
2023-01-12T11:26:34.855Z,0.28
2023-01-12T11:29:23.487Z,0.20
2023-01-12T11:31:55.286Z,0.13
2023-01-12T11:34:25.897Z,0.20
2023-01-12T11:37:11.521Z,0.30
2023-01-12T11:39:41.757Z,0.10
2023-01-12T11:42:48.713Z,0.43
2023-01-12T11:45:49.354Z,0.30
2023-01-12T11:48:38.783Z,0.20
2023-01-12T11:51:06.935Z,0.65
2023-01-12T11:53:34.857Z,0.20
2023-01-12T11:56:12.648Z,0.20
2023-01-12T11:58:46.569Z,0.30
2023-01-12T12:02:13.632Z,0.30
2023-01-12T12:05:01.096Z,1.10
2023-01-12T12:07:47.171Z,0.25
2023-01-12T12:10:21.380Z,0.15
2023-01-12T12:13:35.135Z,0.10
2023-01-12T12:16:24.034Z,0.28
2023-01-12T12:19:11.122Z,0.20
2023-01-12T12:21:49.214Z,0.10
2023-01-12T12:24:41.178Z,0.32
2023-01-12T12:27:24.697Z,0.20
2023-01-12T12:30:04.285Z,0.55
2023-01-12T12:33:00.735Z,0.15
2023-01-12T12:35:41.506Z,0.70
2023-01-12T12:38:31.391Z,0.20
2023-01-12T12:41:35.891Z,0.10
2023-01-12T12:44:34.022Z,0.22
2023-01-12T12:47:21.726Z,0.10
2023-01-12T12:49:49.629Z,0.20
2023-01-12T12:52:18.082Z,0.20
2023-01-12T12:54:46.178Z,0.13
2023-01-12T12:57:14.595Z,0.10
2023-01-12T12:59:42.343Z,0.20
2023-01-12T13:02:31.859Z,0.30
2023-01-12T13:05:04.668Z,0.10
2023-01-12T13:07:36.513Z,0.10
2023-01-12T13:10:26.723Z,0.10
2023-01-12T13:13:01.235Z,0.13
2023-01-12T13:15:36.319Z,0.20
2023-01-12T13:18:05.640Z,0.20
2023-01-12T13:20:48.764Z,0.10
2023-01-12T13:23:51.108Z,0.28
2023-01-12T13:26:45.963Z,0.10
2023-01-12T13:29:29.436Z,0.25
2023-01-12T13:32:23.352Z,0.40
2023-01-12T13:34:54.273Z,0.20
2023-01-12T13:37:40.016Z,0.10
2023-01-12T13:40:20.688Z,0.10
2023-01-12T13:43:08.062Z,0.10
2023-01-12T13:45:37.444Z,0.10
2023-01-12T13:48:07.477Z,0.05
2023-01-12T13:50:36.734Z,0.20
2023-01-12T13:53:05.734Z,0.13
2023-01-12T13:55:36.384Z,0.13
2023-01-12T13:58:17.061Z,0.20
2023-01-12T14:00:55.287Z,0.10
2023-01-12T14:03:44.675Z,0.10
2023-01-12T14:06:32.195Z,0.10
2023-01-12T14:09:41.485Z,0.10
2023-01-12T14:12:21.581Z,0.20
2023-01-12T14:15:37.661Z,0.03
2023-01-12T14:18:17.153Z,0.17
2023-01-12T14:20:48.519Z,0.10
2023-01-12T14:23:29.583Z,0.30
2023-01-12T14:26:22.934Z,0.10
2023-01-12T14:28:54.366Z,0.10
2023-01-12T14:31:35.092Z,0.30
2023-01-12T14:34:04.566Z,0.10
2023-01-12T14:36:43.492Z,0.10
2023-01-12T14:39:20.562Z,0.10
2023-01-12T14:42:11.369Z,0.20
2023-01-12T14:45:12.140Z,0.20
2023-01-12T14:47:40.086Z,0.10
2023-01-12T14:50:26.388Z,0.15
2023-01-12T14:52:54.263Z,0.17
2023-01-12T14:55:41.851Z,0.10
2023-01-12T14:58:20.326Z,0.10
2023-01-12T15:00:48.375Z,0.10
2023-01-12T15:03:28.829Z,0.15
2023-01-12T15:06:03.650Z,0.10
2023-01-12T15:08:31.948Z,0.20
2023-01-12T15:11:08.548Z,0.10
2023-01-12T15:13:37.556Z,0.10
2023-01-12T15:16:24.834Z,0.15
2023-01-12T15:19:11.343Z,0.20
2023-01-12T15:21:58.596Z,0.13
2023-01-12T15:24:48.579Z,0.20
2023-01-12T15:27:21.422Z,0.10
2023-01-12T15:29:49.318Z,0.20
2023-01-12T15:32:48.821Z,0.20
2023-01-12T15:35:25.392Z,0.15
2023-01-12T15:37:57.694Z,0.10
2023-01-12T15:40:26.870Z,0.75
2023-01-12T15:42:54.800Z,0.10
2023-01-12T15:45:30.008Z,0.10
2023-01-12T15:47:57.926Z,0.20
2023-01-12T15:50:25.737Z,0.20
2023-01-12T15:52:54.243Z,0.13
2023-01-12T15:55:23.341Z,0.20
2023-01-12T15:57:54.276Z,0.10
2023-01-12T16:00:24.376Z,0.22
2023-01-12T16:02:53.535Z,0.20
2023-01-12T16:05:23.460Z,0.10
2023-01-12T16:07:51.565Z,0.30
2023-01-12T16:10:20.714Z,0.15
2023-01-12T16:12:48.792Z,0.10
2023-01-12T16:15:21.847Z,0.00
2023-01-12T16:17:50.191Z,0.28
2023-01-12T16:20:19.900Z,0.20
2023-01-12T16:22:48.248Z,0.10
2023-01-12T16:25:16.982Z,0.13
2023-01-12T16:27:44.822Z,0.20
2023-01-12T16:30:15.227Z,0.30
2023-01-12T16:32:46.935Z,0.10
2023-01-12T16:35:15.785Z,0.10
2023-01-12T16:37:44.701Z,0.20
2023-01-12T16:40:15.999Z,0.13
2023-01-12T16:42:43.717Z,0.20
2023-01-12T16:45:15.049Z,0.30
2023-01-12T16:47:42.766Z,0.15
2023-01-12T16:50:10.954Z,0.73
2023-01-12T16:52:38.914Z,0.20
2023-01-12T16:55:06.913Z,0.10
2023-01-12T16:57:34.669Z,0.20
2023-01-12T17:00:02.776Z,0.20
2023-01-12T17:02:32.562Z,0.20
2023-01-12T17:05:00.886Z,0.20
2023-01-12T17:07:29.378Z,0.30
2023-01-12T17:09:59.035Z,0.22
2023-01-12T17:12:27.272Z,0.30
2023-01-12T17:14:55.163Z,0.30
2023-01-12T17:17:23.153Z,0.20
2023-01-12T17:19:51.136Z,0.30
2023-01-12T17:22:19.955Z,0.20
2023-01-12T17:24:49.172Z,0.20
2023-01-12T17:27:20.315Z,0.40
2023-01-12T17:29:51.372Z,0.40
2023-01-12T17:32:19.599Z,0.28
2023-01-12T17:34:48.247Z,0.10
2023-01-12T17:37:16.669Z,0.28
2023-01-12T17:39:44.526Z,0.52
2023-01-12T17:42:36.040Z,0.20
2023-01-12T17:45:04.246Z,0.20
2023-01-12T17:47:32.304Z,0.10
2023-01-12T17:50:00.564Z,0.30
2023-01-12T17:52:28.479Z,0.30
2023-01-12T17:54:56.313Z,0.30
2023-01-12T17:57:24.062Z,0.10
2023-01-12T17:59:52.292Z,0.20
2023-01-12T18:02:20.255Z,0.13
2023-01-12T18:04:48.479Z,0.20
2023-01-12T18:07:16.364Z,0.20
2023-01-12T18:09:44.139Z,0.20
2023-01-12T18:12:12.723Z,0.20
2023-01-12T18:14:40.647Z,0.15
2023-01-12T18:17:33.921Z,0.20
2023-01-12T18:20:27.929Z,0.20
2023-01-12T18:22:55.732Z,0.25
2023-01-12T18:25:23.519Z,0.20
2023-01-12T18:35:39.553Z,0.15
2023-01-12T18:38:08.072Z,0.17
2023-01-12T18:40:36.063Z,0.20
2023-01-12T18:43:03.856Z,0.10
2023-01-12T18:45:32.081Z,0.15
2023-01-12T18:48:18.441Z,0.20
2023-01-12T18:51:04.643Z,0.20
2023-01-12T18:53:34.553Z,0.10
2023-01-12T18:56:06.303Z,0.20
2023-01-12T19:01:23.979Z,0.15
2023-01-12T19:03:53.165Z,0.20
2023-01-12T19:06:23.577Z,0.30
2023-01-12T19:09:10.875Z,0.30
2023-01-12T19:11:40.329Z,0.28
2023-01-12T19:14:26.593Z,0.30
2023-01-12T19:17:12.964Z,0.30
2023-01-12T19:19:40.919Z,0.20
2023-01-12T19:22:27.242Z,0.30
2023-01-12T19:25:13.368Z,0.20
2023-01-12T19:27:59.723Z,0.20
2023-01-12T19:30:27.672Z,0.30
2023-01-12T19:32:55.909Z,0.10
2023-01-12T19:35:25.954Z,0.20
2023-01-12T19:37:53.703Z,0.20
2023-01-12T19:40:28.597Z,0.30
2023-01-12T19:43:14.852Z,0.20
2023-01-12T19:45:44.950Z,0.10
2023-01-12T19:48:14.156Z,0.25
2023-01-12T19:50:44.055Z,0.20
2023-01-12T19:53:19.280Z,0.10
2023-01-12T19:55:48.284Z,0.20
2023-01-12T19:58:16.748Z,0.10
2023-01-12T20:00:46.410Z,0.30
2023-01-12T20:03:15.856Z,0.10
2023-01-12T20:05:44.744Z,0.20
2023-01-12T20:08:12.642Z,0.20
2023-01-12T20:10:41.290Z,0.25
2023-01-12T20:13:10.713Z,0.10
2023-01-12T20:15:39.256Z,0.30
2023-01-12T20:18:08.671Z,0.20
2023-01-12T20:20:37.017Z,0.10
2023-01-12T20:23:04.814Z,0.10
2023-01-12T20:25:32.739Z,0.20
2023-01-12T20:28:00.576Z,0.20
2023-01-12T20:30:43.502Z,0.30
2023-01-12T20:33:12.252Z,0.17
2023-01-12T20:35:45.594Z,0.20
2023-01-12T20:38:15.912Z,0.17
2023-01-12T20:40:45.005Z,0.20
2023-01-12T20:43:13.222Z,0.10
2023-01-12T20:45:43.076Z,0.13
2023-01-12T20:48:13.796Z,0.20
2023-01-12T20:50:45.849Z,0.20
2023-01-12T20:53:14.530Z,0.20
2023-01-12T20:55:44.849Z,0.25
2023-01-12T20:58:14.861Z,0.22
2023-01-12T21:00:43.402Z,0.13
2023-01-12T21:03:11.255Z,0.20
2023-01-12T21:05:46.467Z,0.25
2023-01-12T21:08:15.106Z,0.30
2023-01-12T21:10:50.478Z,0.30
2023-01-12T21:13:18.819Z,0.20
2023-01-12T21:15:47.207Z,0.63
2023-01-12T21:18:15.134Z,0.20
2023-01-12T21:20:43.920Z,0.20
2023-01-12T21:23:12.140Z,0.30
2023-01-12T21:25:43.933Z,0.20
2023-01-12T21:28:12.450Z,0.30
2023-01-12T21:30:40.659Z,0.20
2023-01-12T21:33:08.939Z,0.20
2023-01-12T21:35:38.056Z,0.10
2023-01-12T21:38:06.299Z,0.30
2023-01-12T21:40:34.067Z,0.30
2023-01-12T21:43:10.790Z,0.30
2023-01-12T21:45:43.327Z,0.20
2023-01-12T21:48:13.334Z,0.20
2023-01-12T21:50:42.373Z,0.22
2023-01-12T21:53:17.847Z,0.30
2023-01-12T21:55:57.185Z,0.30
2023-01-12T21:58:25.607Z,0.20
2023-01-12T22:00:53.778Z,0.30
2023-01-12T22:03:24.981Z,0.25
2023-01-12T22:05:53.585Z,0.32
2023-01-12T22:08:21.887Z,0.32
2023-01-12T22:10:49.646Z,0.20
2023-01-12T22:13:18.215Z,0.20
2023-01-12T22:15:48.674Z,0.10
2023-01-12T22:18:16.625Z,0.30
2023-01-12T22:20:44.978Z,0.20
2023-01-12T22:23:13.778Z,0.20
2023-01-12T22:25:41.660Z,0.10
2023-01-12T22:28:09.530Z,0.20
2023-01-12T22:30:37.372Z,0.10
2023-01-12T22:33:05.462Z,0.22
2023-01-12T22:35:36.382Z,0.20
2023-01-12T22:38:04.708Z,0.20
2023-01-12T22:40:32.620Z,0.20
2023-01-12T22:43:19.080Z,0.10
2023-01-12T22:45:50.725Z,0.20
2023-01-12T22:50:47.684Z,0.20
2023-01-12T22:53:15.658Z,0.13
2023-01-12T22:55:43.472Z,0.10
2023-01-12T22:58:11.342Z,0.20
2023-01-12T23:00:40.093Z,0.30
2023-01-12T23:03:09.523Z,0.20
2023-01-12T23:05:46.171Z,0.03
2023-01-12T23:08:15.328Z,0.10
2023-01-12T23:10:44.506Z,0.40
2023-01-12T23:13:19.985Z,0.10
2023-01-12T23:15:50.690Z,0.20
2023-01-12T23:18:20.629Z,0.20
2023-01-12T23:20:49.656Z,0.13
2023-01-12T23:23:18.506Z,0.10
2023-01-12T23:25:47.702Z,0.10
2023-01-12T23:28:16.396Z,0.20
2023-01-12T23:30:44.582Z,0.20
2023-01-12T23:33:12.613Z,0.20
2023-01-12T23:35:42.454Z,0.20
2023-01-12T23:38:15.665Z,0.20
2023-01-12T23:40:45.977Z,0.20
2023-01-12T23:43:13.916Z,0.20
2023-01-12T23:45:42.140Z,0.15
2023-01-12T23:48:10.096Z,0.20
2023-01-12T23:50:38.053Z,0.20
2023-01-12T23:53:06.012Z,0.20
2023-01-12T23:55:34.039Z,0.30
2023-01-12T23:58:02.633Z,0.20
